Terminal Aerodrome Forecast
Issued by NWS

Home | Current Version | Previous Version | Text Only | Print | Product List | Glossary On
Versions: 1 2 3 4 5 6 7 8 9 10 11 12 13
000
FTUS45 KGJT 260544
TAFVEL
TAF
KVEL 260544Z 2606/2706 05008KT P6SM FEW110
     FM261500 07004KT P6SM SCT250
     FM262000 01006KT P6SM SCT250
     FM262100 34006KT P6SM SCT200
     FM270200 02008KT P6SM BKN200=

USA.gov is the U.S. government's official web portal to all federal, state and local government web resources and services.